sensor_id;sensor_type;location;lat;lon;timestamp;P1;P2;P0
74419;PMS5003;62855;50.718;-2.460;2023-06-24T00:00:06;9.98;10.76;
74419;PMS5003;62855;50.718;-2.460;2023-06-24T00:03:05;9.98;10.76;
74419;PMS5003;62855;50.718;-2.460;2023-06-24T00:06:06;10.89;10.76;
74419;PMS5003;62855;50.718;-2.460;2023-06-24T00:10:06;10.89;10.76;
74419;PMS5003;62855;50.718;-2.460;2023-06-24T00:13:06;10.89;11.73;
74419;PMS5003;62855;50.718;-2.460;2023-06-24T00:16:05;10.89;11.73;
74419;PMS5003;62855;50.718;-2.460;2023-06-24T00:19:06;10.89;10.76;
74419;PMS5003;62855;50.718;-2.460;2023-06-24T00:22:06;11.80;11.73;
74419;PMS5003;62855;50.718;-2.460;2023-06-24T00:25:06;11.80;11.73;
74419;PMS5003;62855;50.718;-2.460;2023-06-24T00:28:06;13.61;13.69;
74419;PMS5003;62855;50.718;-2.460;2023-06-24T00:31:06;13.61;13.69;
74419;PMS5003;62855;50.718;-2.460;2023-06-24T00:34:06;12.71;12.71;
74419;PMS5003;62855;50.718;-2.460;2023-06-24T00:37:05;11.80;11.73;
74419;PMS5003;62855;50.718;-2.460;2023-06-24T00:40:06;12.71;12.71;
74419;PMS5003;62855;50.718;-2.460;2023-06-24T00:43:06;12.71;12.71;
74419;PMS5003;62855;50.718;-2.460;2023-06-24T00:46:06;11.80;11.73;
74419;PMS5003;62855;50.718;-2.460;2023-06-24T00:49:06;10.89;11.73;
74419;PMS5003;62855;50.718;-2.460;2023-06-24T00:52:07;9.98;10.76;
74419;PMS5003;62855;50.718;-2.460;2023-06-24T00:55:06;9.08;9.78;
74419;PMS5003;62855;50.718;-2.460;2023-06-24T00:58:05;8.17;7.82;
74419;PMS5003;62855;50.718;-2.460;2023-06-24T01:01:06;8.17;7.82;
74419;PMS5003;62855;50.718;-2.460;2023-06-24T01:04:06;7.26;7.82;
74419;PMS5003;62855;50.718;-2.460;2023-06-24T01:07:06;8.17;7.82;
74419;PMS5003;62855;50.718;-2.460;2023-06-24T01:10:07;8.17;8.80;
74419;PMS5003;62855;50.718;-2.460;2023-06-24T01:13:06;8.17;8.80;
74419;PMS5003;62855;50.718;-2.460;2023-06-24T01:16:07;9.08;9.78;
74419;PMS5003;62855;50.718;-2.460;2023-06-24T01:19:10;9.08;9.78;
74419;PMS5003;62855;50.718;-2.460;2023-06-24T01:22:07;9.98;10.76;
74419;PMS5003;62855;50.718;-2.460;2023-06-24T01:25:10;10.89;11.73;
74419;PMS5003;62855;50.718;-2.460;2023-06-24T01:28:12;11.80;12.71;
74419;PMS5003;62855;50.718;-2.460;2023-06-24T01:34:08;13.61;14.67;
74419;PMS5003;62855;50.718;-2.460;2023-06-24T01:37:08;15.43;13.69;
74419;PMS5003;62855;50.718;-2.460;2023-06-24T01:40:08;15.43;13.69;
74419;PMS5003;62855;50.718;-2.460;2023-06-24T01:43:06;17.24;14.67;
74419;PMS5003;62855;50.718;-2.460;2023-06-24T01:46:06;17.24;14.67;
74419;PMS5003;62855;50.718;-2.460;2023-06-24T01:49:07;18.15;15.65;
74419;PMS5003;62855;50.718;-2.460;2023-06-24T01:52:07;17.24;14.67;
74419;PMS5003;62855;50.718;-2.460;2023-06-24T01:55:07;16.34;14.67;
74419;PMS5003;62855;50.718;-2.460;2023-06-24T01:58:06;14.52;12.71;
74419;PMS5003;62855;50.718;-2.460;2023-06-24T02:01:06;14.52;12.71;
74419;PMS5003;62855;50.718;-2.460;2023-06-24T02:04:06;14.52;12.71;
74419;PMS5003;62855;50.718;-2.460;2023-06-24T02:07:06;14.52;12.71;
74419;PMS5003;62855;50.718;-2.460;2023-06-24T02:10:06;13.61;12.71;
74419;PMS5003;62855;50.718;-2.460;2023-06-24T02:13:05;11.80;11.73;
74419;PMS5003;62855;50.718;-2.460;2023-06-24T02:16:06;10.89;10.76;
74419;PMS5003;62855;50.718;-2.460;2023-06-24T02:19:06;10.89;10.76;
74419;PMS5003;62855;50.718;-2.460;2023-06-24T02:22:05;10.89;10.76;
74419;PMS5003;62855;50.718;-2.460;2023-06-24T02:25:06;11.80;12.71;
74419;PMS5003;62855;50.718;-2.460;2023-06-24T02:28:06;11.80;12.71;
74419;PMS5003;62855;50.718;-2.460;2023-06-24T02:31:06;10.89;11.73;
74419;PMS5003;62855;50.718;-2.460;2023-06-24T02:34:06;10.89;11.73;
74419;PMS5003;62855;50.718;-2.460;2023-06-24T02:37:06;11.80;12.71;
74419;PMS5003;62855;50.718;-2.460;2023-06-24T02:40:06;11.80;12.71;
74419;PMS5003;62855;50.718;-2.460;2023-06-24T02:43:06;12.71;13.69;
74419;PMS5003;62855;50.718;-2.460;2023-06-24T02:46:06;11.80;12.71;
74419;PMS5003;62855;50.718;-2.460;2023-06-24T02:49:06;12.71;12.71;
74419;PMS5003;62855;50.718;-2.460;2023-06-24T02:52:06;11.80;12.71;
74419;PMS5003;62855;50.718;-2.460;2023-06-24T02:55:06;12.71;12.71;
74419;PMS5003;62855;50.718;-2.460;2023-06-24T02:58:05;12.71;12.71;
74419;PMS5003;62855;50.718;-2.460;2023-06-24T03:01:06;13.61;12.71;
74419;PMS5003;62855;50.718;-2.460;2023-06-24T03:04:05;13.61;12.71;
74419;PMS5003;62855;50.718;-2.460;2023-06-24T03:07:06;11.80;11.73;
74419;PMS5003;62855;50.718;-2.460;2023-06-24T03:10:06;11.80;11.73;
74419;PMS5003;62855;50.718;-2.460;2023-06-24T03:13:06;11.80;11.73;
74419;PMS5003;62855;50.718;-2.460;2023-06-24T03:16:05;12.71;12.71;
74419;PMS5003;62855;50.718;-2.460;2023-06-24T03:19:06;12.71;13.69;
74419;PMS5003;62855;50.718;-2.460;2023-06-24T03:22:06;10.89;11.73;
74419;PMS5003;62855;50.718;-2.460;2023-06-24T03:25:06;9.98;10.76;
74419;PMS5003;62855;50.718;-2.460;2023-06-24T03:28:06;9.98;10.76;
74419;PMS5003;62855;50.718;-2.460;2023-06-24T03:31:06;11.80;11.73;
74419;PMS5003;62855;50.718;-2.460;2023-06-24T03:34:05;9.98;10.76;
74419;PMS5003;62855;50.718;-2.460;2023-06-24T03:37:06;9.98;9.78;
74419;PMS5003;62855;50.718;-2.460;2023-06-24T03:40:06;10.89;10.76;
74419;PMS5003;62855;50.718;-2.460;2023-06-24T03:43:05;10.89;10.76;
74419;PMS5003;62855;50.718;-2.460;2023-06-24T03:46:06;9.98;10.76;
74419;PMS5003;62855;50.718;-2.460;2023-06-24T03:49:06;9.08;8.80;
74419;PMS5003;62855;50.718;-2.460;2023-06-24T03:52:05;9.98;10.76;
74419;PMS5003;62855;50.718;-2.460;2023-06-24T03:55:06;10.89;11.73;
74419;PMS5003;62855;50.718;-2.460;2023-06-24T03:58:05;9.98;9.78;
74419;PMS5003;62855;50.718;-2.460;2023-06-24T04:01:06;9.08;8.80;
74419;PMS5003;62855;50.718;-2.460;2023-06-24T04:04:06;9.08;9.78;
74419;PMS5003;62855;50.718;-2.460;2023-06-24T04:07:05;9.08;9.78;
74419;PMS5003;62855;50.718;-2.460;2023-06-24T04:10:06;9.98;10.76;
74419;PMS5003;62855;50.718;-2.460;2023-06-24T04:13:05;9.08;9.78;
74419;PMS5003;62855;50.718;-2.460;2023-06-24T04:16:06;9.08;9.78;
74419;PMS5003;62855;50.718;-2.460;2023-06-24T04:19:06;9.08;9.78;
74419;PMS5003;62855;50.718;-2.460;2023-06-24T04:22:05;9.08;9.78;
74419;PMS5003;62855;50.718;-2.460;2023-06-24T04:25:06;9.98;10.76;
74419;PMS5003;62855;50.718;-2.460;2023-06-24T04:28:06;9.08;9.78;
74419;PMS5003;62855;50.718;-2.460;2023-06-24T04:31:06;9.08;9.78;
74419;PMS5003;62855;50.718;-2.460;2023-06-24T04:34:06;11.80;11.73;
74419;PMS5003;62855;50.718;-2.460;2023-06-24T04:37:06;10.89;10.76;
74419;PMS5003;62855;50.718;-2.460;2023-06-24T04:40:06;11.80;12.71;
74419;PMS5003;62855;50.718;-2.460;2023-06-24T04:43:06;11.80;11.73;
74419;PMS5003;62855;50.718;-2.460;2023-06-24T04:46:06;12.71;12.71;
74419;PMS5003;62855;50.718;-2.460;2023-06-24T04:49:06;11.80;11.73;
74419;PMS5003;62855;50.718;-2.460;2023-06-24T04:52:06;12.71;11.73;
74419;PMS5003;62855;50.718;-2.460;2023-06-24T04:55:06;11.80;11.73;
74419;PMS5003;62855;50.718;-2.460;2023-06-24T04:58:05;11.80;11.73;
74419;PMS5003;62855;50.718;-2.460;2023-06-24T05:01:05;13.61;12.71;
74419;PMS5003;62855;50.718;-2.460;2023-06-24T05:04:06;13.61;13.69;
74419;PMS5003;62855;50.718;-2.460;2023-06-24T05:07:06;12.71;12.71;
74419;PMS5003;62855;50.718;-2.460;2023-06-24T05:10:06;12.71;11.73;
74419;PMS5003;62855;50.718;-2.460;2023-06-24T05:13:05;12.71;12.71;
74419;PMS5003;62855;50.718;-2.460;2023-06-24T05:16:06;12.71;11.73;
74419;PMS5003;62855;50.718;-2.460;2023-06-24T05:19:06;12.71;12.71;
74419;PMS5003;62855;50.718;-2.460;2023-06-24T05:22:06;11.80;11.73;
74419;PMS5003;62855;50.718;-2.460;2023-06-24T05:25:06;12.71;12.71;
74419;PMS5003;62855;50.718;-2.460;2023-06-24T05:28:06;12.71;12.71;
74419;PMS5003;62855;50.718;-2.460;2023-06-24T05:31:05;11.80;11.73;
74419;PMS5003;62855;50.718;-2.460;2023-06-24T05:34:06;10.89;11.73;
74419;PMS5003;62855;50.718;-2.460;2023-06-24T05:37:06;10.89;11.73;
74419;PMS5003;62855;50.718;-2.460;2023-06-24T05:40:06;11.80;11.73;
74419;PMS5003;62855;50.718;-2.460;2023-06-24T05:43:06;11.80;11.73;
74419;PMS5003;62855;50.718;-2.460;2023-06-24T05:46:06;9.98;10.76;
74419;PMS5003;62855;50.718;-2.460;2023-06-24T05:49:06;9.98;10.76;
74419;PMS5003;62855;50.718;-2.460;2023-06-24T05:52:06;9.98;9.78;
74419;PMS5003;62855;50.718;-2.460;2023-06-24T05:55:06;9.08;9.78;
74419;PMS5003;62855;50.718;-2.460;2023-06-24T05:58:06;9.08;9.78;
74419;PMS5003;62855;50.718;-2.460;2023-06-24T06:01:06;9.98;10.76;
74419;PMS5003;62855;50.718;-2.460;2023-06-24T06:04:06;9.98;9.78;
74419;PMS5003;62855;50.718;-2.460;2023-06-24T06:07:06;9.98;9.78;
74419;PMS5003;62855;50.718;-2.460;2023-06-24T06:10:07;9.98;9.78;
74419;PMS5003;62855;50.718;-2.460;2023-06-24T06:13:05;9.98;9.78;
74419;PMS5003;62855;50.718;-2.460;2023-06-24T06:16:06;9.98;9.78;
74419;PMS5003;62855;50.718;-2.460;2023-06-24T06:19:06;9.98;8.80;
74419;PMS5003;62855;50.718;-2.460;2023-06-24T06:22:05;9.98;9.78;
74419;PMS5003;62855;50.718;-2.460;2023-06-24T06:25:06;10.89;10.76;
74419;PMS5003;62855;50.718;-2.460;2023-06-24T06:28:06;9.98;9.78;
74419;PMS5003;62855;50.718;-2.460;2023-06-24T06:31:06;9.08;8.80;
74419;PMS5003;62855;50.718;-2.460;2023-06-24T06:34:05;8.17;8.80;
74419;PMS5003;62855;50.718;-2.460;2023-06-24T06:37:06;9.08;9.78;
74419;PMS5003;62855;50.718;-2.460;2023-06-24T06:40:06;8.17;8.80;
74419;PMS5003;62855;50.718;-2.460;2023-06-24T06:43:05;8.17;8.80;
74419;PMS5003;62855;50.718;-2.460;2023-06-24T06:46:06;8.17;8.80;
74419;PMS5003;62855;50.718;-2.460;2023-06-24T06:49:06;8.17;8.80;
74419;PMS5003;62855;50.718;-2.460;2023-06-24T06:52:06;9.08;8.80;
74419;PMS5003;62855;50.718;-2.460;2023-06-24T06:55:05;7.26;6.84;
74419;PMS5003;62855;50.718;-2.460;2023-06-24T06:58:06;9.08;8.80;
74419;PMS5003;62855;50.718;-2.460;2023-06-24T07:01:06;9.08;8.80;
74419;PMS5003;62855;50.718;-2.460;2023-06-24T07:04:06;9.08;8.80;
74419;PMS5003;62855;50.718;-2.460;2023-06-24T07:07:05;9.08;9.78;
74419;PMS5003;62855;50.718;-2.460;2023-06-24T07:10:06;9.98;9.78;
74419;PMS5003;62855;50.718;-2.460;2023-06-24T07:13:06;10.89;10.76;
74419;PMS5003;62855;50.718;-2.460;2023-06-24T07:16:06;11.80;11.73;
74419;PMS5003;62855;50.718;-2.460;2023-06-24T07:19:05;11.80;11.73;
74419;PMS5003;62855;50.718;-2.460;2023-06-24T07:22:06;13.61;12.71;
74419;PMS5003;62855;50.718;-2.460;2023-06-24T07:25:06;14.52;13.69;
74419;PMS5003;62855;50.718;-2.460;2023-06-24T07:28:06;13.61;13.69;
74419;PMS5003;62855;50.718;-2.460;2023-06-24T07:31:06;14.52;13.69;
74419;PMS5003;62855;50.718;-2.460;2023-06-24T07:34:06;15.43;14.67;
74419;PMS5003;62855;50.718;-2.460;2023-06-24T07:37:06;14.52;13.69;
74419;PMS5003;62855;50.718;-2.460;2023-06-24T07:40:06;14.52;13.69;
74419;PMS5003;62855;50.718;-2.460;2023-06-24T07:43:05;13.61;12.71;
74419;PMS5003;62855;50.718;-2.460;2023-06-24T07:46:06;11.80;11.73;
74419;PMS5003;62855;50.718;-2.460;2023-06-24T07:49:05;10.89;10.76;
74419;PMS5003;62855;50.718;-2.460;2023-06-24T07:52:06;12.71;10.76;
74419;PMS5003;62855;50.718;-2.460;2023-06-24T07:55:06;13.61;10.76;
74419;PMS5003;62855;50.718;-2.460;2023-06-24T07:58:06;15.43;11.73;
74419;PMS5003;62855;50.718;-2.460;2023-06-24T08:01:06;13.61;10.76;
74419;PMS5003;62855;50.718;-2.460;2023-06-24T08:04:06;14.52;11.73;
74419;PMS5003;62855;50.718;-2.460;2023-06-24T08:07:06;14.52;12.71;
74419;PMS5003;62855;50.718;-2.460;2023-06-24T08:10:06;15.43;13.69;
74419;PMS5003;62855;50.718;-2.460;2023-06-24T08:13:06;15.43;14.67;
74419;PMS5003;62855;50.718;-2.460;2023-06-24T08:16:06;14.52;13.69;
74419;PMS5003;62855;50.718;-2.460;2023-06-24T08:19:06;14.52;13.69;
74419;PMS5003;62855;50.718;-2.460;2023-06-24T08:22:06;14.52;13.69;
74419;PMS5003;62855;50.718;-2.460;2023-06-24T08:25:06;14.52;13.69;
74419;PMS5003;62855;50.718;-2.460;2023-06-24T08:28:06;15.43;14.67;
74419;PMS5003;62855;50.718;-2.460;2023-06-24T08:31:05;15.43;15.65;
74419;PMS5003;62855;50.718;-2.460;2023-06-24T08:34:06;15.43;14.67;
74419;PMS5003;62855;50.718;-2.460;2023-06-24T08:37:06;13.61;12.71;
74419;PMS5003;62855;50.718;-2.460;2023-06-24T08:40:06;12.71;10.76;
74419;PMS5003;62855;50.718;-2.460;2023-06-24T08:43:06;12.71;10.76;
74419;PMS5003;62855;50.718;-2.460;2023-06-24T08:46:06;14.52;10.76;
74419;PMS5003;62855;50.718;-2.460;2023-06-24T08:49:07;12.71;9.78;
74419;PMS5003;62855;50.718;-2.460;2023-06-24T08:52:06;11.80;8.80;
74419;PMS5003;62855;50.718;-2.460;2023-06-24T08:55:06;12.71;9.78;
74419;PMS5003;62855;50.718;-2.460;2023-06-24T08:58:06;11.80;9.78;
74419;PMS5003;62855;50.718;-2.460;2023-06-24T09:01:06;12.71;10.76;
74419;PMS5003;62855;50.718;-2.460;2023-06-24T09:04:06;11.80;10.76;
74419;PMS5003;62855;50.718;-2.460;2023-06-24T09:07:06;12.71;10.76;
74419;PMS5003;62855;50.718;-2.460;2023-06-24T09:10:06;9.98;8.80;
74419;PMS5003;62855;50.718;-2.460;2023-06-24T09:13:06;8.17;8.80;
74419;PMS5003;62855;50.718;-2.460;2023-06-24T09:16:11;8.17;8.80;
74419;PMS5003;62855;50.718;-2.460;2023-06-24T09:19:05;9.08;8.80;
74419;PMS5003;62855;50.718;-2.460;2023-06-24T09:22:06;9.98;9.78;
74419;PMS5003;62855;50.718;-2.460;2023-06-24T09:25:06;9.98;9.78;
74419;PMS5003;62855;50.718;-2.460;2023-06-24T09:28:06;9.08;9.78;
74419;PMS5003;62855;50.718;-2.460;2023-06-24T09:31:06;9.08;8.80;
74419;PMS5003;62855;50.718;-2.460;2023-06-24T09:34:08;9.08;8.80;
74419;PMS5003;62855;50.718;-2.460;2023-06-24T09:37:06;8.17;8.80;
74419;PMS5003;62855;50.718;-2.460;2023-06-24T09:40:06;9.08;8.80;
74419;PMS5003;62855;50.718;-2.460;2023-06-24T09:43:05;9.08;9.78;
74419;PMS5003;62855;50.718;-2.460;2023-06-24T09:46:06;9.98;9.78;
74419;PMS5003;62855;50.718;-2.460;2023-06-24T09:49:06;9.98;10.76;
74419;PMS5003;62855;50.718;-2.460;2023-06-24T09:52:06;10.89;11.73;
74419;PMS5003;62855;50.718;-2.460;2023-06-24T09:55:06;9.98;10.76;
74419;PMS5003;62855;50.718;-2.460;2023-06-24T09:58:06;9.98;10.76;
74419;PMS5003;62855;50.718;-2.460;2023-06-24T10:01:06;9.98;10.76;
74419;PMS5003;62855;50.718;-2.460;2023-06-24T10:04:06;10.89;11.73;
74419;PMS5003;62855;50.718;-2.460;2023-06-24T10:07:06;9.08;9.78;
74419;PMS5003;62855;50.718;-2.460;2023-06-24T10:10:06;9.98;10.76;
74419;PMS5003;62855;50.718;-2.460;2023-06-24T10:13:05;9.98;10.76;
74419;PMS5003;62855;50.718;-2.460;2023-06-24T10:16:06;9.08;9.78;
74419;PMS5003;62855;50.718;-2.460;2023-06-24T10:19:05;9.98;10.76;
74419;PMS5003;62855;50.718;-2.460;2023-06-24T10:22:07;9.08;9.78;
74419;PMS5003;62855;50.718;-2.460;2023-06-24T10:25:06;9.08;9.78;
74419;PMS5003;62855;50.718;-2.460;2023-06-24T10:28:06;9.98;9.78;
74419;PMS5003;62855;50.718;-2.460;2023-06-24T10:31:06;9.98;10.76;
74419;PMS5003;62855;50.718;-2.460;2023-06-24T10:35:06;9.98;10.76;
74419;PMS5003;62855;50.718;-2.460;2023-06-24T10:38:06;9.98;10.76;
74419;PMS5003;62855;50.718;-2.460;2023-06-24T10:47:06;10.89;9.78;
74419;PMS5003;62855;50.718;-2.460;2023-06-24T10:50:06;10.89;9.78;
74419;PMS5003;62855;50.718;-2.460;2023-06-24T10:53:07;10.89;10.76;
74419;PMS5003;62855;50.718;-2.460;2023-06-24T10:56:06;10.89;10.76;
74419;PMS5003;62855;50.718;-2.460;2023-06-24T10:59:05;10.89;11.73;
74419;PMS5003;62855;50.718;-2.460;2023-06-24T11:02:07;10.89;11.73;
74419;PMS5003;62855;50.718;-2.460;2023-06-24T11:05:06;11.80;11.73;
74419;PMS5003;62855;50.718;-2.460;2023-06-24T11:08:06;12.71;12.71;
74419;PMS5003;62855;50.718;-2.460;2023-06-24T11:11:05;11.80;12.71;
74419;PMS5003;62855;50.718;-2.460;2023-06-24T11:14:06;12.71;12.71;
74419;PMS5003;62855;50.718;-2.460;2023-06-24T11:17:06;11.80;11.73;
74419;PMS5003;62855;50.718;-2.460;2023-06-24T11:20:06;12.71;12.71;
74419;PMS5003;62855;50.718;-2.460;2023-06-24T11:23:07;12.71;11.73;
74419;PMS5003;62855;50.718;-2.460;2023-06-24T11:26:06;12.71;11.73;
74419;PMS5003;62855;50.718;-2.460;2023-06-24T11:29:09;11.80;11.73;
74419;PMS5003;62855;50.718;-2.460;2023-06-24T11:32:07;13.61;12.71;
74419;PMS5003;62855;50.718;-2.460;2023-06-24T11:35:07;13.61;12.71;
74419;PMS5003;62855;50.718;-2.460;2023-06-24T11:38:06;13.61;12.71;
74419;PMS5003;62855;50.718;-2.460;2023-06-24T11:41:06;13.61;12.71;
74419;PMS5003;62855;50.718;-2.460;2023-06-24T11:44:05;12.71;12.71;
74419;PMS5003;62855;50.718;-2.460;2023-06-24T11:47:07;11.80;11.73;
74419;PMS5003;62855;50.718;-2.460;2023-06-24T11:50:06;10.89;10.76;
74419;PMS5003;62855;50.718;-2.460;2023-06-24T11:53:05;10.89;10.76;
74419;PMS5003;62855;50.718;-2.460;2023-06-24T11:56:06;10.89;10.76;
74419;PMS5003;62855;50.718;-2.460;2023-06-24T11:59:06;9.98;10.76;
74419;PMS5003;62855;50.718;-2.460;2023-06-24T12:02:06;9.08;9.78;
74419;PMS5003;62855;50.718;-2.460;2023-06-24T12:05:06;9.08;9.78;
74419;PMS5003;62855;50.718;-2.460;2023-06-24T12:08:07;9.08;9.78;
74419;PMS5003;62855;50.718;-2.460;2023-06-24T12:11:06;9.08;9.78;
74419;PMS5003;62855;50.718;-2.460;2023-06-24T12:14:06;8.17;8.80;
74419;PMS5003;62855;50.718;-2.460;2023-06-24T12:17:06;9.98;9.78;
74419;PMS5003;62855;50.718;-2.460;2023-06-24T12:20:06;10.89;10.76;
74419;PMS5003;62855;50.718;-2.460;2023-06-24T12:23:06;10.89;10.76;
74419;PMS5003;62855;50.718;-2.460;2023-06-24T12:26:06;9.08;8.80;
74419;PMS5003;62855;50.718;-2.460;2023-06-24T12:29:05;10.89;10.76;
74419;PMS5003;62855;50.718;-2.460;2023-06-24T12:32:06;9.98;9.78;
74419;PMS5003;62855;50.718;-2.460;2023-06-24T12:35:06;9.98;9.78;
74419;PMS5003;62855;50.718;-2.460;2023-06-24T12:38:06;10.89;11.73;
74419;PMS5003;62855;50.718;-2.460;2023-06-24T12:41:05;11.80;12.71;
74419;PMS5003;62855;50.718;-2.460;2023-06-24T12:44:06;10.89;11.73;
74419;PMS5003;62855;50.718;-2.460;2023-06-24T12:47:06;11.80;11.73;
74419;PMS5003;62855;50.718;-2.460;2023-06-24T12:50:06;11.80;11.73;
74419;PMS5003;62855;50.718;-2.460;2023-06-24T12:53:06;10.89;10.76;
74419;PMS5003;62855;50.718;-2.460;2023-06-24T12:56:05;10.89;10.76;
74419;PMS5003;62855;50.718;-2.460;2023-06-24T12:59:06;10.89;10.76;
74419;PMS5003;62855;50.718;-2.460;2023-06-24T13:02:06;9.08;9.78;
74419;PMS5003;62855;50.718;-2.460;2023-06-24T13:05:06;10.89;10.76;
74419;PMS5003;62855;50.718;-2.460;2023-06-24T13:08:05;9.98;9.78;
74419;PMS5003;62855;50.718;-2.460;2023-06-24T13:11:06;9.08;8.80;
74419;PMS5003;62855;50.718;-2.460;2023-06-24T13:14:06;9.98;9.78;
74419;PMS5003;62855;50.718;-2.460;2023-06-24T13:17:05;9.08;9.78;
74419;PMS5003;62855;50.718;-2.460;2023-06-24T13:20:06;9.08;9.78;
74419;PMS5003;62855;50.718;-2.460;2023-06-24T13:23:06;9.98;10.76;
74419;PMS5003;62855;50.718;-2.460;2023-06-24T13:26:05;10.89;11.73;
74419;PMS5003;62855;50.718;-2.460;2023-06-24T13:29:06;9.98;10.76;
74419;PMS5003;62855;50.718;-2.460;2023-06-24T13:32:06;11.80;11.73;
74419;PMS5003;62855;50.718;-2.460;2023-06-24T13:35:06;10.89;11.73;
74419;PMS5003;62855;50.718;-2.460;2023-06-24T13:38:05;11.80;11.73;
74419;PMS5003;62855;50.718;-2.460;2023-06-24T13:41:06;10.89;11.73;
74419;PMS5003;62855;50.718;-2.460;2023-06-24T13:44:06;10.89;10.76;
74419;PMS5003;62855;50.718;-2.460;2023-06-24T13:47:06;9.98;9.78;
74419;PMS5003;62855;50.718;-2.460;2023-06-24T13:50:06;9.08;9.78;
74419;PMS5003;62855;50.718;-2.460;2023-06-24T13:53:06;10.89;11.73;
74419;PMS5003;62855;50.718;-2.460;2023-06-24T13:56:06;9.98;10.76;
74419;PMS5003;62855;50.718;-2.460;2023-06-24T13:59:05;11.80;11.73;
74419;PMS5003;62855;50.718;-2.460;2023-06-24T14:02:06;10.89;11.73;
74419;PMS5003;62855;50.718;-2.460;2023-06-24T14:05:06;10.89;11.73;
74419;PMS5003;62855;50.718;-2.460;2023-06-24T14:08:05;12.71;13.69;
74419;PMS5003;62855;50.718;-2.460;2023-06-24T14:11:06;13.61;13.69;
74419;PMS5003;62855;50.718;-2.460;2023-06-24T14:14:06;14.52;14.67;
74419;PMS5003;62855;50.718;-2.460;2023-06-24T14:17:05;14.52;14.67;
74419;PMS5003;62855;50.718;-2.460;2023-06-24T14:20:06;13.61;14.67;
74419;PMS5003;62855;50.718;-2.460;2023-06-24T14:23:06;12.71;13.69;
74419;PMS5003;62855;50.718;-2.460;2023-06-24T14:26:05;13.61;13.69;
74419;PMS5003;62855;50.718;-2.460;2023-06-24T14:29:06;12.71;11.73;
74419;PMS5003;62855;50.718;-2.460;2023-06-24T14:32:06;12.71;12.71;
74419;PMS5003;62855;50.718;-2.460;2023-06-24T14:35:07;11.80;10.76;
74419;PMS5003;62855;50.718;-2.460;2023-06-24T14:38:06;11.80;11.73;
74419;PMS5003;62855;50.718;-2.460;2023-06-24T14:41:06;11.80;11.73;
74419;PMS5003;62855;50.718;-2.460;2023-06-24T14:44:06;11.80;10.76;
74419;PMS5003;62855;50.718;-2.460;2023-06-24T14:47:06;14.52;12.71;
74419;PMS5003;62855;50.718;-2.460;2023-06-24T14:50:06;14.52;13.69;
74419;PMS5003;62855;50.718;-2.460;2023-06-24T14:53:06;17.24;13.69;
74419;PMS5003;62855;50.718;-2.460;2023-06-24T14:56:05;17.24;13.69;
74419;PMS5003;62855;50.718;-2.460;2023-06-24T14:59:06;14.52;10.76;
74419;PMS5003;62855;50.718;-2.460;2023-06-24T15:02:06;13.61;9.78;
74419;PMS5003;62855;50.718;-2.460;2023-06-24T15:05:06;14.52;10.76;
74419;PMS5003;62855;50.718;-2.460;2023-06-24T15:08:06;15.43;11.73;
74419;PMS5003;62855;50.718;-2.460;2023-06-24T15:11:05;12.71;9.78;
74419;PMS5003;62855;50.718;-2.460;2023-06-24T15:14:06;12.71;10.76;
74419;PMS5003;62855;50.718;-2.460;2023-06-24T15:17:06;11.80;10.76;
74419;PMS5003;62855;50.718;-2.460;2023-06-24T15:20:07;10.89;10.76;
74419;PMS5003;62855;50.718;-2.460;2023-06-24T15:23:05;10.89;9.78;
74419;PMS5003;62855;50.718;-2.460;2023-06-24T15:26:06;9.98;9.78;
74419;PMS5003;62855;50.718;-2.460;2023-06-24T15:29:05;9.98;9.78;
74419;PMS5003;62855;50.718;-2.460;2023-06-24T15:32:06;9.98;10.76;
74419;PMS5003;62855;50.718;-2.460;2023-06-24T15:35:06;9.98;9.78;
74419;PMS5003;62855;50.718;-2.460;2023-06-24T15:38:06;8.17;8.80;
74419;PMS5003;62855;50.718;-2.460;2023-06-24T15:41:06;9.08;9.78;
74419;PMS5003;62855;50.718;-2.460;2023-06-24T15:44:06;9.98;9.78;
74419;PMS5003;62855;50.718;-2.460;2023-06-24T15:47:06;9.98;9.78;
74419;PMS5003;62855;50.718;-2.460;2023-06-24T15:50:06;9.08;8.80;
74419;PMS5003;62855;50.718;-2.460;2023-06-24T15:53:06;9.98;9.78;
74419;PMS5003;62855;50.718;-2.460;2023-06-24T15:56:06;9.98;9.78;
74419;PMS5003;62855;50.718;-2.460;2023-06-24T15:59:05;9.08;7.82;
74419;PMS5003;62855;50.718;-2.460;2023-06-24T16:02:06;9.98;9.78;
74419;PMS5003;62855;50.718;-2.460;2023-06-24T16:05:06;9.98;9.78;
74419;PMS5003;62855;50.718;-2.460;2023-06-24T16:08:06;9.08;8.80;
74419;PMS5003;62855;50.718;-2.460;2023-06-24T16:11:05;10.89;10.76;
74419;PMS5003;62855;50.718;-2.460;2023-06-24T16:14:06;9.98;9.78;
74419;PMS5003;62855;50.718;-2.460;2023-06-24T16:17:06;9.08;8.80;
74419;PMS5003;62855;50.718;-2.460;2023-06-24T16:20:06;9.08;9.78;
74419;PMS5003;62855;50.718;-2.460;2023-06-24T16:23:05;9.98;10.76;
74419;PMS5003;62855;50.718;-2.460;2023-06-24T16:26:06;9.08;9.78;
74419;PMS5003;62855;50.718;-2.460;2023-06-24T16:29:06;9.98;10.76;
74419;PMS5003;62855;50.718;-2.460;2023-06-24T16:32:06;10.89;11.73;
74419;PMS5003;62855;50.718;-2.460;2023-06-24T16:35:06;9.98;10.76;
74419;PMS5003;62855;50.718;-2.460;2023-06-24T16:38:06;10.89;11.73;
74419;PMS5003;62855;50.718;-2.460;2023-06-24T16:41:06;10.89;11.73;
74419;PMS5003;62855;50.718;-2.460;2023-06-24T16:44:05;10.89;11.73;
74419;PMS5003;62855;50.718;-2.460;2023-06-24T16:47:06;11.80;12.71;
74419;PMS5003;62855;50.718;-2.460;2023-06-24T16:50:06;11.80;12.71;
74419;PMS5003;62855;50.718;-2.460;2023-06-24T16:53:05;11.80;12.71;
74419;PMS5003;62855;50.718;-2.460;2023-06-24T16:56:06;12.71;11.73;
74419;PMS5003;62855;50.718;-2.460;2023-06-24T16:59:05;11.80;11.73;
74419;PMS5003;62855;50.718;-2.460;2023-06-24T17:02:06;12.71;12.71;
74419;PMS5003;62855;50.718;-2.460;2023-06-24T17:05:06;12.71;11.73;
74419;PMS5003;62855;50.718;-2.460;2023-06-24T17:08:06;12.71;11.73;
74419;PMS5003;62855;50.718;-2.460;2023-06-24T17:11:05;12.71;12.71;
74419;PMS5003;62855;50.718;-2.460;2023-06-24T17:14:06;13.61;13.69;
74419;PMS5003;62855;50.718;-2.460;2023-06-24T17:17:05;13.61;12.71;
74419;PMS5003;62855;50.718;-2.460;2023-06-24T17:20:06;12.71;13.69;
74419;PMS5003;62855;50.718;-2.460;2023-06-24T17:23:05;12.71;12.71;
74419;PMS5003;62855;50.718;-2.460;2023-06-24T17:26:06;10.89;11.73;
74419;PMS5003;62855;50.718;-2.460;2023-06-24T17:30:06;9.98;10.76;
74419;PMS5003;62855;50.718;-2.460;2023-06-24T17:33:06;11.80;11.73;
74419;PMS5003;62855;50.718;-2.460;2023-06-24T17:36:06;11.80;12.71;
74419;PMS5003;62855;50.718;-2.460;2023-06-24T17:39:05;11.80;11.73;
74419;PMS5003;62855;50.718;-2.460;2023-06-24T17:42:06;10.89;10.76;
74419;PMS5003;62855;50.718;-2.460;2023-06-24T17:45:07;9.98;9.78;
74419;PMS5003;62855;50.718;-2.460;2023-06-24T17:48:06;9.98;9.78;
74419;PMS5003;62855;50.718;-2.460;2023-06-24T17:51:06;9.98;9.78;
74419;PMS5003;62855;50.718;-2.460;2023-06-24T17:54:06;9.98;10.76;
74419;PMS5003;62855;50.718;-2.460;2023-06-24T17:57:06;9.98;10.76;
74419;PMS5003;62855;50.718;-2.460;2023-06-24T18:00:06;9.08;9.78;
74419;PMS5003;62855;50.718;-2.460;2023-06-24T18:03:05;9.08;9.78;
74419;PMS5003;62855;50.718;-2.460;2023-06-24T18:06:06;9.08;9.78;
74419;PMS5003;62855;50.718;-2.460;2023-06-24T18:09:05;15.43;13.69;
74419;PMS5003;62855;50.718;-2.460;2023-06-24T18:12:06;17.24;14.67;